sensor_id;sensor_type;location;lat;lon;timestamp;P1;durP1;ratioP1;P2;durP2;ratioP2
83443;SDS011;73374;41.170;-96.156;2023-12-20T00:00:26;1.33;;;0.90;;
83443;SDS011;73374;41.170;-96.156;2023-12-20T00:05:29;4.47;;;0.93;;
83443;SDS011;73374;41.170;-96.156;2023-12-20T00:10:32;2.42;;;1.00;;
83443;SDS011;73374;41.170;-96.156;2023-12-20T00:15:37;2.20;;;0.77;;
83443;SDS011;73374;41.170;-96.156;2023-12-20T00:20:40;12.95;;;1.80;;
83443;SDS011;73374;41.170;-96.156;2023-12-20T00:25:43;5.72;;;1.40;;
83443;SDS011;73374;41.170;-96.156;2023-12-20T00:30:47;3.25;;;1.63;;
83443;SDS011;73374;41.170;-96.156;2023-12-20T00:35:50;8.55;;;1.50;;
83443;SDS011;73374;41.170;-96.156;2023-12-20T00:40:53;2.28;;;1.27;;
83443;SDS011;73374;41.170;-96.156;2023-12-20T00:45:58;5.50;;;1.30;;
83443;SDS011;73374;41.170;-96.156;2023-12-20T00:51:02;6.95;;;1.30;;
83443;SDS011;73374;41.170;-96.156;2023-12-20T00:56:05;7.55;;;2.00;;
83443;SDS011;73374;41.170;-96.156;2023-12-20T01:01:09;2.95;;;1.02;;
83443;SDS011;73374;41.170;-96.156;2023-12-20T01:06:13;6.97;;;1.98;;
83443;SDS011;73374;41.170;-96.156;2023-12-20T01:11:16;4.75;;;1.90;;
83443;SDS011;73374;41.170;-96.156;2023-12-20T01:16:20;5.30;;;1.70;;
83443;SDS011;73374;41.170;-96.156;2023-12-20T01:21:23;3.50;;;1.55;;
83443;SDS011;73374;41.170;-96.156;2023-12-20T01:26:26;3.25;;;1.45;;
83443;SDS011;73374;41.170;-96.156;2023-12-20T01:31:31;3.28;;;1.25;;
83443;SDS011;73374;41.170;-96.156;2023-12-20T01:36:34;5.40;;;1.23;;
83443;SDS011;73374;41.170;-96.156;2023-12-20T01:41:37;2.80;;;1.08;;
83443;SDS011;73374;41.170;-96.156;2023-12-20T01:46:42;2.05;;;0.90;;
83443;SDS011;73374;41.170;-96.156;2023-12-20T01:51:45;2.05;;;1.10;;
83443;SDS011;73374;41.170;-96.156;2023-12-20T01:56:48;1.77;;;1.05;;
83443;SDS011;73374;41.170;-96.156;2023-12-20T02:01:54;2.03;;;0.90;;
83443;SDS011;73374;41.170;-96.156;2023-12-20T02:06:58;4.65;;;1.13;;
83443;SDS011;73374;41.170;-96.156;2023-12-20T02:12:02;1.55;;;1.00;;
83443;SDS011;73374;41.170;-96.156;2023-12-20T02:17:07;2.42;;;0.85;;
83443;SDS011;73374;41.170;-96.156;2023-12-20T02:22:12;1.20;;;0.70;;
83443;SDS011;73374;41.170;-96.156;2023-12-20T02:27:15;1.30;;;0.90;;
83443;SDS011;73374;41.170;-96.156;2023-12-20T02:32:20;2.35;;;0.73;;
83443;SDS011;73374;41.170;-96.156;2023-12-20T02:37:26;1.50;;;0.70;;
83443;SDS011;73374;41.170;-96.156;2023-12-20T02:42:29;2.10;;;0.50;;
83443;SDS011;73374;41.170;-96.156;2023-12-20T02:47:32;1.00;;;0.50;;
83443;SDS011;73374;41.170;-96.156;2023-12-20T02:52:37;2.63;;;0.70;;
83443;SDS011;73374;41.170;-96.156;2023-12-20T02:57:40;1.10;;;0.45;;
83443;SDS011;73374;41.170;-96.156;2023-12-20T03:02:43;1.42;;;0.60;;
83443;SDS011;73374;41.170;-96.156;2023-12-20T03:07:48;7.72;;;1.00;;
83443;SDS011;73374;41.170;-96.156;2023-12-20T03:12:51;2.42;;;0.60;;
83443;SDS011;73374;41.170;-96.156;2023-12-20T03:17:54;1.48;;;0.60;;
83443;SDS011;73374;41.170;-96.156;2023-12-20T03:22:58;2.10;;;1.00;;
83443;SDS011;73374;41.170;-96.156;2023-12-20T03:28:02;4.25;;;0.70;;
83443;SDS011;73374;41.170;-96.156;2023-12-20T03:33:05;0.60;;;0.35;;
83443;SDS011;73374;41.170;-96.156;2023-12-20T03:38:10;1.33;;;0.73;;
83443;SDS011;73374;41.170;-96.156;2023-12-20T03:43:13;1.17;;;0.60;;
83443;SDS011;73374;41.170;-96.156;2023-12-20T03:48:16;3.33;;;0.60;;
83443;SDS011;73374;41.170;-96.156;2023-12-20T03:53:22;1.35;;;0.60;;
83443;SDS011;73374;41.170;-96.156;2023-12-20T03:58:25;1.00;;;0.55;;
83443;SDS011;73374;41.170;-96.156;2023-12-20T04:03:28;0.70;;;0.40;;
83443;SDS011;73374;41.170;-96.156;2023-12-20T04:08:32;1.85;;;0.80;;
83443;SDS011;73374;41.170;-96.156;2023-12-20T04:13:35;2.58;;;0.55;;
83443;SDS011;73374;41.170;-96.156;2023-12-20T04:18:38;1.05;;;0.65;;
83443;SDS011;73374;41.170;-96.156;2023-12-20T04:23:43;2.03;;;0.90;;
83443;SDS011;73374;41.170;-96.156;2023-12-20T04:28:46;2.13;;;0.60;;
83443;SDS011;73374;41.170;-96.156;2023-12-20T04:33:49;0.80;;;0.57;;
83443;SDS011;73374;41.170;-96.156;2023-12-20T04:38:54;1.98;;;0.93;;
83443;SDS011;73374;41.170;-96.156;2023-12-20T04:43:57;1.40;;;0.60;;
83443;SDS011;73374;41.170;-96.156;2023-12-20T04:54:04;0.40;;;0.30;;
83443;SDS011;73374;41.170;-96.156;2023-12-20T04:59:07;2.05;;;0.75;;
83443;SDS011;73374;41.170;-96.156;2023-12-20T05:09:14;2.67;;;0.60;;
83443;SDS011;73374;41.170;-96.156;2023-12-20T05:14:17;0.60;;;0.52;;
83443;SDS011;73374;41.170;-96.156;2023-12-20T05:19:20;8.13;;;0.50;;
83443;SDS011;73374;41.170;-96.156;2023-12-20T05:24:25;0.55;;;0.55;;
83443;SDS011;73374;41.170;-96.156;2023-12-20T05:29:28;1.52;;;0.77;;
83443;SDS011;73374;41.170;-96.156;2023-12-20T05:34:31;0.77;;;0.50;;
83443;SDS011;73374;41.170;-96.156;2023-12-20T05:39:36;1.33;;;0.70;;
83443;SDS011;73374;41.170;-96.156;2023-12-20T05:44:39;1.13;;;0.70;;
83443;SDS011;73374;41.170;-96.156;2023-12-20T05:49:43;4.93;;;0.90;;
83443;SDS011;73374;41.170;-96.156;2023-12-20T05:54:48;1.05;;;0.82;;
83443;SDS011;73374;41.170;-96.156;2023-12-20T05:59:51;2.45;;;0.70;;
83443;SDS011;73374;41.170;-96.156;2023-12-20T06:09:58;1.83;;;0.75;;
83443;SDS011;73374;41.170;-96.156;2023-12-20T06:15:01;1.13;;;0.73;;
83443;SDS011;73374;41.170;-96.156;2023-12-20T06:20:05;1.10;;;0.52;;
83443;SDS011;73374;41.170;-96.156;2023-12-20T06:25:11;2.15;;;0.82;;
83443;SDS011;73374;41.170;-96.156;2023-12-20T06:30:15;2.33;;;0.73;;
83443;SDS011;73374;41.170;-96.156;2023-12-20T06:35:18;1.92;;;0.90;;
83443;SDS011;73374;41.170;-96.156;2023-12-20T06:45:25;1.38;;;0.90;;
83443;SDS011;73374;41.170;-96.156;2023-12-20T06:50:28;2.05;;;1.17;;
83443;SDS011;73374;41.170;-96.156;2023-12-20T06:55:33;1.30;;;0.85;;
83443;SDS011;73374;41.170;-96.156;2023-12-20T07:00:37;1.30;;;0.80;;
83443;SDS011;73374;41.170;-96.156;2023-12-20T07:10:44;1.48;;;0.90;;
83443;SDS011;73374;41.170;-96.156;2023-12-20T07:15:47;1.73;;;0.90;;
83443;SDS011;73374;41.170;-96.156;2023-12-20T07:20:50;2.13;;;1.20;;
83443;SDS011;73374;41.170;-96.156;2023-12-20T07:30:57;1.58;;;0.63;;
83443;SDS011;73374;41.170;-96.156;2023-12-20T07:41:04;4.20;;;1.20;;
83443;SDS011;73374;41.170;-96.156;2023-12-20T07:46:07;1.27;;;0.88;;
83443;SDS011;73374;41.170;-96.156;2023-12-20T07:51:11;1.27;;;0.85;;
83443;SDS011;73374;41.170;-96.156;2023-12-20T07:56:16;3.22;;;0.90;;
83443;SDS011;73374;41.170;-96.156;2023-12-20T08:01:19;1.65;;;0.80;;
83443;SDS011;73374;41.170;-96.156;2023-12-20T08:06:24;2.22;;;1.13;;
83443;SDS011;73374;41.170;-96.156;2023-12-20T08:11:28;1.88;;;0.93;;
83443;SDS011;73374;41.170;-96.156;2023-12-20T08:16:32;1.02;;;0.60;;
83443;SDS011;73374;41.170;-96.156;2023-12-20T08:26:41;2.85;;;0.70;;
83443;SDS011;73374;41.170;-96.156;2023-12-20T08:31:44;1.65;;;0.90;;
83443;SDS011;73374;41.170;-96.156;2023-12-20T08:36:47;1.67;;;1.10;;
83443;SDS011;73374;41.170;-96.156;2023-12-20T08:41:52;3.20;;;0.90;;
83443;SDS011;73374;41.170;-96.156;2023-12-20T08:46:55;2.25;;;1.00;;
83443;SDS011;73374;41.170;-96.156;2023-12-20T08:51:58;1.60;;;0.80;;
83443;SDS011;73374;41.170;-96.156;2023-12-20T08:57:03;2.63;;;0.82;;
83443;SDS011;73374;41.170;-96.156;2023-12-20T09:02:06;1.70;;;0.80;;
83443;SDS011;73374;41.170;-96.156;2023-12-20T09:07:20;4.20;;;1.15;;
83443;SDS011;73374;41.170;-96.156;2023-12-20T09:12:25;5.18;;;0.85;;
83443;SDS011;73374;41.170;-96.156;2023-12-20T09:17:28;2.58;;;0.80;;
83443;SDS011;73374;41.170;-96.156;2023-12-20T09:22:33;2.28;;;1.10;;
83443;SDS011;73374;41.170;-96.156;2023-12-20T09:32:40;1.75;;;0.68;;
83443;SDS011;73374;41.170;-96.156;2023-12-20T09:37:45;1.88;;;1.00;;
83443;SDS011;73374;41.170;-96.156;2023-12-20T09:42:50;2.22;;;1.23;;
83443;SDS011;73374;41.170;-96.156;2023-12-20T09:47:59;1.88;;;1.10;;
83443;SDS011;73374;41.170;-96.156;2023-12-20T09:53:03;1.35;;;0.80;;
83443;SDS011;73374;41.170;-96.156;2023-12-20T09:58:11;2.47;;;0.70;;
83443;SDS011;73374;41.170;-96.156;2023-12-20T10:03:14;1.75;;;1.02;;
83443;SDS011;73374;41.170;-96.156;2023-12-20T10:08:18;1.80;;;0.98;;
83443;SDS011;73374;41.170;-96.156;2023-12-20T10:13:25;2.03;;;1.13;;
83443;SDS011;73374;41.170;-96.156;2023-12-20T10:18:28;6.10;;;1.20;;
83443;SDS011;73374;41.170;-96.156;2023-12-20T10:23:40;4.90;;;1.08;;
83443;SDS011;73374;41.170;-96.156;2023-12-20T10:28:44;2.45;;;1.13;;
83443;SDS011;73374;41.170;-96.156;2023-12-20T10:33:47;3.13;;;1.10;;
83443;SDS011;73374;41.170;-96.156;2023-12-20T10:38:51;1.73;;;1.00;;
83443;SDS011;73374;41.170;-96.156;2023-12-20T10:43:57;2.22;;;1.10;;
83443;SDS011;73374;41.170;-96.156;2023-12-20T10:49:02;1.60;;;0.98;;
83443;SDS011;73374;41.170;-96.156;2023-12-20T10:54:06;2.88;;;1.33;;
83443;SDS011;73374;41.170;-96.156;2023-12-20T10:59:11;2.30;;;1.45;;
83443;SDS011;73374;41.170;-96.156;2023-12-20T11:04:18;3.80;;;1.50;;
83443;SDS011;73374;41.170;-96.156;2023-12-20T11:09:26;3.95;;;1.15;;
83443;SDS011;73374;41.170;-96.156;2023-12-20T11:14:38;1.88;;;0.90;;
83443;SDS011;73374;41.170;-96.156;2023-12-20T11:25:08;3.95;;;1.13;;
83443;SDS011;73374;41.170;-96.156;2023-12-20T11:30:14;2.38;;;1.23;;
83443;SDS011;73374;41.170;-96.156;2023-12-20T11:35:18;4.05;;;1.40;;
83443;SDS011;73374;41.170;-96.156;2023-12-20T11:40:22;5.10;;;1.38;;
83443;SDS011;73374;41.170;-96.156;2023-12-20T11:45:27;2.97;;;1.25;;
83443;SDS011;73374;41.170;-96.156;2023-12-20T11:50:32;2.05;;;1.30;;
83443;SDS011;73374;41.170;-96.156;2023-12-20T11:55:35;2.85;;;1.30;;
83443;SDS011;73374;41.170;-96.156;2023-12-20T12:00:40;2.03;;;1.25;;
83443;SDS011;73374;41.170;-96.156;2023-12-20T12:05:46;2.13;;;1.13;;
83443;SDS011;73374;41.170;-96.156;2023-12-20T12:10:50;2.58;;;1.40;;
83443;SDS011;73374;41.170;-96.156;2023-12-20T12:15:55;2.17;;;1.27;;
83443;SDS011;73374;41.170;-96.156;2023-12-20T12:21:01;4.88;;;1.40;;
83443;SDS011;73374;41.170;-96.156;2023-12-20T12:31:17;4.47;;;1.70;;
83443;SDS011;73374;41.170;-96.156;2023-12-20T12:36:20;4.50;;;1.70;;
83443;SDS011;73374;41.170;-96.156;2023-12-20T12:41:23;3.50;;;1.35;;
83443;SDS011;73374;41.170;-96.156;2023-12-20T12:46:28;4.35;;;1.45;;
83443;SDS011;73374;41.170;-96.156;2023-12-20T12:51:31;2.88;;;1.52;;
83443;SDS011;73374;41.170;-96.156;2023-12-20T12:56:34;2.50;;;1.58;;
83443;SDS011;73374;41.170;-96.156;2023-12-20T13:01:39;2.72;;;1.30;;
83443;SDS011;73374;41.170;-96.156;2023-12-20T13:06:42;4.57;;;1.23;;
83443;SDS011;73374;41.170;-96.156;2023-12-20T13:11:45;4.55;;;1.90;;
83443;SDS011;73374;41.170;-96.156;2023-12-20T13:16:50;7.65;;;2.40;;
83443;SDS011;73374;41.170;-96.156;2023-12-20T13:21:53;2.78;;;1.45;;
83443;SDS011;73374;41.170;-96.156;2023-12-20T13:26:56;4.63;;;1.67;;
83443;SDS011;73374;41.170;-96.156;2023-12-20T13:32:01;4.55;;;1.63;;
83443;SDS011;73374;41.170;-96.156;2023-12-20T13:37:04;3.75;;;1.50;;
83443;SDS011;73374;41.170;-96.156;2023-12-20T13:42:08;5.05;;;1.50;;
83443;SDS011;73374;41.170;-96.156;2023-12-20T13:47:12;5.32;;;1.60;;
83443;SDS011;73374;41.170;-96.156;2023-12-20T13:52:15;2.65;;;1.27;;
83443;SDS011;73374;41.170;-96.156;2023-12-20T13:57:18;2.75;;;1.40;;
83443;SDS011;73374;41.170;-96.156;2023-12-20T14:02:43;7.45;;;1.90;;
83443;SDS011;73374;41.170;-96.156;2023-12-20T14:07:46;8.02;;;2.13;;
83443;SDS011;73374;41.170;-96.156;2023-12-20T14:12:50;4.88;;;1.73;;
83443;SDS011;73374;41.170;-96.156;2023-12-20T14:17:54;8.85;;;2.20;;
83443;SDS011;73374;41.170;-96.156;2023-12-20T14:22:57;4.63;;;1.55;;
83443;SDS011;73374;41.170;-96.156;2023-12-20T14:28:00;2.92;;;1.63;;
83443;SDS011;73374;41.170;-96.156;2023-12-20T14:33:05;3.53;;;1.65;;
83443;SDS011;73374;41.170;-96.156;2023-12-20T14:38:08;3.40;;;1.83;;
83443;SDS011;73374;41.170;-96.156;2023-12-20T14:43:12;7.35;;;1.90;;
83443;SDS011;73374;41.170;-96.156;2023-12-20T14:53:19;3.55;;;2.20;;
83443;SDS011;73374;41.170;-96.156;2023-12-20T14:58:24;8.35;;;2.40;;
83443;SDS011;73374;41.170;-96.156;2023-12-20T15:03:29;5.40;;;2.00;;
83443;SDS011;73374;41.170;-96.156;2023-12-20T15:08:32;12.07;;;2.30;;
83443;SDS011;73374;41.170;-96.156;2023-12-20T15:18:39;5.85;;;2.08;;
83443;SDS011;73374;41.170;-96.156;2023-12-20T15:23:42;4.55;;;1.85;;
83443;SDS011;73374;41.170;-96.156;2023-12-20T15:28:45;2.58;;;1.10;;
83443;SDS011;73374;41.170;-96.156;2023-12-20T15:33:50;3.10;;;1.60;;
83443;SDS011;73374;41.170;-96.156;2023-12-20T15:38:53;1.65;;;1.10;;
83443;SDS011;73374;41.170;-96.156;2023-12-20T15:43:56;2.97;;;1.13;;
83443;SDS011;73374;41.170;-96.156;2023-12-20T15:49:01;2.55;;;1.20;;
83443;SDS011;73374;41.170;-96.156;2023-12-20T15:54:04;5.75;;;1.95;;
83443;SDS011;73374;41.170;-96.156;2023-12-20T15:59:07;1.90;;;1.08;;
83443;SDS011;73374;41.170;-96.156;2023-12-20T16:04:11;3.08;;;1.10;;
83443;SDS011;73374;41.170;-96.156;2023-12-20T16:09:14;1.98;;;1.15;;
83443;SDS011;73374;41.170;-96.156;2023-12-20T16:14:17;3.03;;;1.40;;
83443;SDS011;73374;41.170;-96.156;2023-12-20T16:19:22;1.45;;;1.02;;
83443;SDS011;73374;41.170;-96.156;2023-12-20T16:24:25;2.08;;;1.10;;
83443;SDS011;73374;41.170;-96.156;2023-12-20T16:29:28;5.07;;;1.10;;
83443;SDS011;73374;41.170;-96.156;2023-12-20T16:34:33;5.20;;;1.27;;
83443;SDS011;73374;41.170;-96.156;2023-12-20T16:39:36;1.30;;;0.90;;
83443;SDS011;73374;41.170;-96.156;2023-12-20T16:44:39;2.15;;;1.10;;
83443;SDS011;73374;41.170;-96.156;2023-12-20T16:49:43;2.10;;;0.93;;
83443;SDS011;73374;41.170;-96.156;2023-12-20T16:54:47;3.90;;;0.93;;
83443;SDS011;73374;41.170;-96.156;2023-12-20T16:59:50;3.78;;;1.05;;
83443;SDS011;73374;41.170;-96.156;2023-12-20T17:04:54;1.33;;;0.93;;
83443;SDS011;73374;41.170;-96.156;2023-12-20T17:09:57;3.17;;;1.23;;
83443;SDS011;73374;41.170;-96.156;2023-12-20T17:15:01;3.22;;;1.27;;
83443;SDS011;73374;41.170;-96.156;2023-12-20T17:20:06;3.42;;;1.33;;
83443;SDS011;73374;41.170;-96.156;2023-12-20T17:25:10;1.98;;;1.30;;
83443;SDS011;73374;41.170;-96.156;2023-12-20T17:30:13;2.13;;;1.25;;
83443;SDS011;73374;41.170;-96.156;2023-12-20T17:35:18;1.70;;;1.20;;
83443;SDS011;73374;41.170;-96.156;2023-12-20T17:40:21;3.60;;;1.50;;
83443;SDS011;73374;41.170;-96.156;2023-12-20T17:45:24;3.85;;;1.30;;
83443;SDS011;73374;41.170;-96.156;2023-12-20T17:50:28;1.80;;;1.20;;
83443;SDS011;73374;41.170;-96.156;2023-12-20T17:55:31;5.13;;;1.40;;
83443;SDS011;73374;41.170;-96.156;2023-12-20T18:00:35;5.43;;;1.75;;
83443;SDS011;73374;41.170;-96.156;2023-12-20T18:05:40;3.03;;;1.50;;
83443;SDS011;73374;41.170;-96.156;2023-12-20T18:10:43;2.63;;;1.80;;
83443;SDS011;73374;41.170;-96.156;2023-12-20T18:15:46;4.18;;;1.88;;
83443;SDS011;73374;41.170;-96.156;2023-12-20T18:20:51;8.45;;;1.70;;
83443;SDS011;73374;41.170;-96.156;2023-12-20T18:25:54;5.90;;;1.75;;
83443;SDS011;73374;41.170;-96.156;2023-12-20T18:30:57;4.72;;;1.92;;
83443;SDS011;73374;41.170;-96.156;2023-12-20T18:36:02;3.80;;;1.70;;
83443;SDS011;73374;41.170;-96.156;2023-12-20T18:41:05;4.55;;;1.85;;
83443;SDS011;73374;41.170;-96.156;2023-12-20T18:46:08;4.38;;;1.83;;
83443;SDS011;73374;41.170;-96.156;2023-12-20T18:51:13;2.80;;;2.20;;
83443;SDS011;73374;41.170;-96.156;2023-12-20T18:56:16;5.03;;;2.05;;
83443;SDS011;73374;41.170;-96.156;2023-12-20T19:01:19;3.45;;;1.63;;
83443;SDS011;73374;41.170;-96.156;2023-12-20T19:06:24;2.22;;;2.03;;
83443;SDS011;73374;41.170;-96.156;2023-12-20T19:11:27;4.10;;;1.85;;
83443;SDS011;73374;41.170;-96.156;2023-12-20T19:16:30;3.67;;;1.60;;
83443;SDS011;73374;41.170;-96.156;2023-12-20T19:21:35;3.08;;;2.50;;
83443;SDS011;73374;41.170;-96.156;2023-12-20T19:26:38;4.03;;;2.30;;
83443;SDS011;73374;41.170;-96.156;2023-12-20T19:31:41;3.20;;;1.90;;
83443;SDS011;73374;41.170;-96.156;2023-12-20T19:36:46;4.63;;;2.00;;
83443;SDS011;73374;41.170;-96.156;2023-12-20T19:41:49;2.97;;;1.90;;
83443;SDS011;73374;41.170;-96.156;2023-12-20T19:46:52;3.22;;;1.67;;
83443;SDS011;73374;41.170;-96.156;2023-12-20T19:51:56;4.13;;;2.00;;
83443;SDS011;73374;41.170;-96.156;2023-12-20T19:56:59;2.90;;;1.70;;
83443;SDS011;73374;41.170;-96.156;2023-12-20T20:02:02;3.67;;;1.88;;
83443;SDS011;73374;41.170;-96.156;2023-12-20T20:07:07;2.83;;;1.98;;
83443;SDS011;73374;41.170;-96.156;2023-12-20T20:12:10;3.65;;;1.67;;
83443;SDS011;73374;41.170;-96.156;2023-12-20T20:17:13;3.67;;;2.17;;
83443;SDS011;73374;41.170;-96.156;2023-12-20T20:22:18;6.50;;;2.00;;
83443;SDS011;73374;41.170;-96.156;2023-12-20T20:27:21;3.83;;;2.10;;
83443;SDS011;73374;41.170;-96.156;2023-12-20T20:32:24;6.78;;;2.25;;
83443;SDS011;73374;41.170;-96.156;2023-12-20T20:37:28;3.47;;;2.17;;
83443;SDS011;73374;41.170;-96.156;2023-12-20T20:42:32;2.70;;;2.20;;
83443;SDS011;73374;41.170;-96.156;2023-12-20T20:47:34;4.78;;;2.00;;
83443;SDS011;73374;41.170;-96.156;2023-12-20T20:52:39;3.05;;;2.05;;
83443;SDS011;73374;41.170;-96.156;2023-12-20T20:57:42;3.47;;;1.90;;
83443;SDS011;73374;41.170;-96.156;2023-12-20T21:02:46;3.78;;;1.83;;
83443;SDS011;73374;41.170;-96.156;2023-12-20T21:07:50;2.45;;;1.80;;
83443;SDS011;73374;41.170;-96.156;2023-12-20T21:12:53;2.40;;;1.67;;
83443;SDS011;73374;41.170;-96.156;2023-12-20T21:17:56;4.22;;;1.85;;
83443;SDS011;73374;41.170;-96.156;2023-12-20T21:23:01;6.47;;;2.50;;
83443;SDS011;73374;41.170;-96.156;2023-12-20T21:28:04;7.30;;;2.38;;
83443;SDS011;73374;41.170;-96.156;2023-12-20T21:33:08;3.38;;;2.22;;
83443;SDS011;73374;41.170;-96.156;2023-12-20T21:38:12;5.07;;;2.20;;
83443;SDS011;73374;41.170;-96.156;2023-12-20T21:43:15;5.13;;;2.20;;
83443;SDS011;73374;41.170;-96.156;2023-12-20T21:48:18;3.60;;;2.45;;
83443;SDS011;73374;41.170;-96.156;2023-12-20T21:53:23;3.35;;;2.20;;
83443;SDS011;73374;41.170;-96.156;2023-12-20T21:58:26;2.92;;;2.30;;
83443;SDS011;73374;41.170;-96.156;2023-12-20T22:03:29;3.30;;;2.13;;
83443;SDS011;73374;41.170;-96.156;2023-12-20T22:08:33;2.97;;;2.22;;
83443;SDS011;73374;41.170;-96.156;2023-12-20T22:13:36;5.40;;;2.20;;
83443;SDS011;73374;41.170;-96.156;2023-12-20T22:18:39;3.53;;;2.20;;
83443;SDS011;73374;41.170;-96.156;2023-12-20T22:23:44;5.80;;;2.35;;
83443;SDS011;73374;41.170;-96.156;2023-12-20T22:28:47;4.53;;;2.38;;
83443;SDS011;73374;41.170;-96.156;2023-12-20T22:33:50;6.13;;;2.15;;
83443;SDS011;73374;41.170;-96.156;2023-12-20T22:38:55;6.40;;;2.50;;
83443;SDS011;73374;41.170;-96.156;2023-12-20T22:43:58;3.83;;;2.28;;
83443;SDS011;73374;41.170;-96.156;2023-12-20T22:49:01;3.95;;;2.40;;
83443;SDS011;73374;41.170;-96.156;2023-12-20T22:54:05;4.32;;;2.45;;
83443;SDS011;73374;41.170;-96.156;2023-12-20T22:59:08;4.25;;;2.13;;
83443;SDS011;73374;41.170;-96.156;2023-12-20T23:04:11;6.93;;;2.80;;
83443;SDS011;73374;41.170;-96.156;2023-12-20T23:09:16;4.65;;;2.35;;
83443;SDS011;73374;41.170;-96.156;2023-12-20T23:14:19;10.13;;;2.95;;
83443;SDS011;73374;41.170;-96.156;2023-12-20T23:19:24;5.05;;;2.60;;
83443;SDS011;73374;41.170;-96.156;2023-12-20T23:24:29;5.47;;;2.80;;
83443;SDS011;73374;41.170;-96.156;2023-12-20T23:29:32;7.82;;;2.75;;
83443;SDS011;73374;41.170;-96.156;2023-12-20T23:34:35;7.10;;;2.33;;
83443;SDS011;73374;41.170;-96.156;2023-12-20T23:39:43;5.88;;;2.45;;
83443;SDS011;73374;41.170;-96.156;2023-12-20T23:44:46;8.43;;;2.75;;
83443;SDS011;73374;41.170;-96.156;2023-12-20T23:49:49;12.63;;;2.97;;
83443;SDS011;73374;41.170;-96.156;2023-12-20T23:54:54;6.65;;;2.65;;
83443;SDS011;73374;41.170;-96.156;2023-12-20T23:59:57;9.82;;;3.03;;
